createdAt,value
2017-11-25T00:00:59.719Z,22.54
2017-11-25T00:02:11.963Z,22.6
2017-11-25T00:03:24.596Z,22.51
2017-11-25T00:04:37.360Z,22.49
2017-11-25T00:05:52.113Z,22.46
2017-11-25T00:07:19.040Z,22.38
2017-11-25T00:08:31.798Z,22.44
2017-11-25T00:09:44.487Z,22.38
2017-11-25T00:10:55.809Z,22.45
2017-11-25T00:12:08.459Z,22.42
2017-11-25T00:13:21.118Z,22.36
2017-11-25T00:14:33.873Z,22.36
2017-11-25T00:15:46.520Z,22.38
2017-11-25T00:16:59.228Z,22.27
2017-11-25T00:18:11.964Z,22.3
2017-11-25T00:19:24.665Z,22.42
2017-11-25T00:20:37.419Z,22.42
2017-11-25T00:21:50.099Z,22.41
2017-11-25T00:23:02.825Z,22.35
2017-11-25T00:24:15.473Z,22.27
2017-11-25T00:25:28.187Z,22.36
2017-11-25T00:26:40.918Z,22.24
2017-11-25T00:27:53.198Z,22.12
2017-11-25T00:29:06.332Z,22.23
2017-11-25T00:30:18.514Z,22.23
2017-11-25T00:31:31.260Z,22.3
2017-11-25T00:32:43.949Z,22.21
2017-11-25T00:33:56.589Z,22.19
2017-11-25T00:35:08.465Z,22.15
2017-11-25T00:36:21.151Z,22.12
2017-11-25T00:37:33.855Z,22.19
2017-11-25T00:38:46.061Z,22.2
2017-11-25T00:39:58.341Z,22.15
2017-11-25T00:41:10.610Z,22.19
2017-11-25T00:42:23.385Z,22.06
2017-11-25T00:43:36.137Z,22.11
2017-11-25T00:44:48.446Z,22.11
2017-11-25T00:46:00.705Z,22.02
2017-11-25T00:47:13.430Z,22.05
2017-11-25T00:48:25.667Z,22.01
2017-11-25T00:49:37.956Z,22.06
2017-11-25T00:50:51.524Z,22.05
2017-11-25T00:52:04.285Z,21.96
2017-11-25T00:53:16.521Z,21.94
2017-11-25T00:54:29.210Z,22.01
2017-11-25T00:55:41.509Z,21.94
2017-11-25T00:56:54.238Z,22.01
2017-11-25T00:58:06.495Z,21.96
2017-11-25T00:59:19.201Z,21.93
2017-11-25T01:00:31.917Z,21.9
2017-11-25T01:01:44.716Z,21.9
2017-11-25T01:02:57.426Z,21.93
2017-11-25T01:04:09.666Z,21.89
2017-11-25T01:05:22.414Z,21.9
2017-11-25T01:06:35.151Z,21.83
2017-11-25T01:07:47.415Z,21.83
2017-11-25T01:09:00.140Z,21.83
2017-11-25T01:10:12.818Z,21.79
2017-11-25T01:11:25.928Z,21.74
2017-11-25T01:12:39.221Z,21.68
2017-11-25T01:13:51.471Z,21.7
2017-11-25T01:15:04.226Z,21.68
2017-11-25T01:16:16.897Z,21.66
2017-11-25T01:17:29.125Z,21.64
2017-11-25T01:18:41.832Z,21.68
2017-11-25T01:19:54.535Z,21.77
2017-11-25T01:21:06.841Z,21.66
2017-11-25T01:22:19.638Z,21.77
2017-11-25T01:23:32.324Z,21.7
2017-11-25T01:24:45.032Z,21.66
2017-11-25T01:25:57.753Z,21.56
2017-11-25T01:27:10.493Z,21.59
2017-11-25T01:28:23.234Z,21.55
2017-11-25T01:29:35.993Z,21.64
2017-11-25T01:30:48.728Z,21.59
2017-11-25T01:32:01.031Z,21.61
2017-11-25T01:33:15.272Z,21.59
2017-11-25T01:34:27.590Z,21.66
2017-11-25T01:35:40.380Z,21.59
2017-11-25T01:36:52.659Z,21.53
2017-11-25T01:38:04.434Z,21.51
2017-11-25T01:39:16.700Z,21.58
2017-11-25T01:40:29.427Z,21.56
2017-11-25T01:41:42.116Z,21.56
2017-11-25T01:42:54.892Z,21.53
2017-11-25T01:44:07.623Z,21.52
2017-11-25T01:45:20.381Z,21.51
2017-11-25T01:46:33.164Z,21.53
2017-11-25T01:47:45.865Z,21.56
2017-11-25T01:48:58.572Z,21.48
2017-11-25T01:50:11.253Z,21.53
2017-11-25T01:51:23.945Z,21.59
2017-11-25T01:52:36.619Z,21.48
2017-11-25T01:53:51.398Z,21.51
2017-11-25T01:55:05.886Z,21.53
2017-11-25T01:56:18.551Z,21.51
2017-11-25T01:57:31.260Z,21.49
2017-11-25T01:58:43.924Z,21.51
2017-11-25T01:59:56.581Z,21.48
2017-11-25T02:01:08.778Z,21.51
2017-11-25T02:02:21.436Z,21.49
2017-11-25T02:03:34.092Z,21.51
2017-11-25T02:04:46.776Z,21.48
2017-11-25T02:06:02.332Z,21.48
2017-11-25T02:07:15.004Z,21.43
2017-11-25T02:08:27.643Z,21.38
2017-11-25T02:09:40.315Z,21.21
2017-11-25T02:10:52.984Z,21.24
2017-11-25T02:12:05.209Z,21.18
2017-11-25T02:13:17.869Z,21.06
2017-11-25T02:14:30.543Z,21.09
2017-11-25T02:15:43.521Z,21.05
2017-11-25T02:16:59.072Z,21.11
2017-11-25T02:18:11.726Z,21.18
2017-11-25T02:19:24.362Z,21.15
2017-11-25T02:20:37.038Z,21.24
2017-11-25T02:21:49.693Z,21.21
2017-11-25T02:23:01.898Z,21.19
2017-11-25T02:24:14.115Z,21.19
2017-11-25T02:25:26.768Z,21.24
2017-11-25T02:26:40.466Z,21.16
2017-11-25T02:27:53.403Z,21.06
2017-11-25T02:29:06.087Z,21.11
2017-11-25T02:30:18.757Z,21.09
2017-11-25T02:31:31.425Z,21.05
2017-11-25T02:32:44.088Z,21.06
2017-11-25T02:33:55.859Z,21
2017-11-25T02:35:08.547Z,21.01
2017-11-25T02:36:21.190Z,20.97
2017-11-25T02:37:34.068Z,21.11
2017-11-25T02:38:46.252Z,21.08
2017-11-25T02:39:58.921Z,21.06
2017-11-25T02:41:11.579Z,21.11
2017-11-25T02:42:23.342Z,21.12
2017-11-25T02:43:36.013Z,21.06
2017-11-25T02:44:48.661Z,21.08
2017-11-25T02:46:01.342Z,21.11
2017-11-25T02:47:13.560Z,21.06
2017-11-25T02:48:26.313Z,21.08
2017-11-25T02:49:39.201Z,21.08
2017-11-25T02:50:51.855Z,21.15
2017-11-25T02:52:04.085Z,21.15
2017-11-25T02:53:16.728Z,21.16
2017-11-25T02:54:29.393Z,21.11
2017-11-25T02:55:41.639Z,21.15
2017-11-25T02:56:54.306Z,21.16
2017-11-25T02:58:06.972Z,21.15
2017-11-25T02:59:19.707Z,21.09
2017-11-25T03:00:32.367Z,21.15
2017-11-25T03:01:45.054Z,21.24
2017-11-25T03:02:57.716Z,21.21
2017-11-25T03:04:10.361Z,21.08
2017-11-25T03:05:23.026Z,21.13
2017-11-25T03:06:35.684Z,21.22
2017-11-25T03:07:48.338Z,21.06
2017-11-25T03:09:00.995Z,21.16
2017-11-25T03:10:13.820Z,21.18
2017-11-25T03:11:26.524Z,21.19
2017-11-25T03:12:38.730Z,21.21
2017-11-25T03:13:50.950Z,21.05
2017-11-25T03:15:03.587Z,21.09
2017-11-25T03:16:15.788Z,20.88
2017-11-25T03:17:28.445Z,20.91
2017-11-25T03:18:41.075Z,20.83
2017-11-25T03:19:53.749Z,20.81
2017-11-25T03:21:06.400Z,20.73
2017-11-25T03:22:18.532Z,20.82
2017-11-25T03:23:31.146Z,20.83
2017-11-25T03:24:43.804Z,20.81
2017-11-25T03:25:56.008Z,20.75
2017-11-25T03:27:08.671Z,20.75
2017-11-25T03:28:21.296Z,20.81
2017-11-25T03:29:33.941Z,20.82
2017-11-25T03:30:46.591Z,20.83
2017-11-25T03:31:59.290Z,20.91
2017-11-25T03:33:11.080Z,20.9
2017-11-25T03:34:23.753Z,20.83
2017-11-25T03:35:36.483Z,20.88
2017-11-25T03:36:49.183Z,20.87
2017-11-25T03:38:01.890Z,20.87
2017-11-25T03:39:14.216Z,20.9
2017-11-25T03:40:26.894Z,20.91
2017-11-25T03:41:39.581Z,20.85
2017-11-25T03:42:52.265Z,20.93
2017-11-25T03:44:05.017Z,20.82
2017-11-25T03:45:17.766Z,20.83
2017-11-25T03:46:30.512Z,20.83
2017-11-25T03:47:43.285Z,20.81
2017-11-25T03:48:56.047Z,20.79
2017-11-25T03:50:07.851Z,20.87
2017-11-25T03:51:20.658Z,20.78
2017-11-25T03:52:33.379Z,20.78
2017-11-25T03:53:46.091Z,20.68
2017-11-25T03:54:58.863Z,20.69
2017-11-25T03:56:11.707Z,20.71
2017-11-25T03:57:24.422Z,20.63
2017-11-25T03:58:36.701Z,20.66
2017-11-25T03:59:49.381Z,20.64
2017-11-25T04:01:02.107Z,20.6
2017-11-25T04:02:14.407Z,20.56
2017-11-25T04:03:27.131Z,20.61
2017-11-25T04:04:39.915Z,20.54
2017-11-25T04:05:52.690Z,20.61
2017-11-25T04:07:04.965Z,20.58
2017-11-25T04:08:17.653Z,20.5
2017-11-25T04:09:30.365Z,20.58
2017-11-25T04:10:43.117Z,20.66
2017-11-25T04:11:55.912Z,20.51
2017-11-25T04:13:10.188Z,20.56
2017-11-25T04:14:23.023Z,20.56
2017-11-25T04:15:35.812Z,20.63
2017-11-25T04:16:48.600Z,20.44
2017-11-25T04:18:00.953Z,20.56
2017-11-25T04:19:13.748Z,20.51
2017-11-25T04:20:26.102Z,20.5
2017-11-25T04:21:38.889Z,20.37
2017-11-25T04:22:51.662Z,20.37
2017-11-25T04:24:05.107Z,20.41
2017-11-25T04:25:21.416Z,20.35
2017-11-25T04:26:34.190Z,20.33
2017-11-25T04:27:46.526Z,20.25
2017-11-25T04:28:59.407Z,20.31
2017-11-25T04:30:12.204Z,20.31
2017-11-25T04:31:24.990Z,20.16
2017-11-25T04:32:37.802Z,20.22
2017-11-25T04:33:50.594Z,20.17
2017-11-25T04:35:03.364Z,20.2
2017-11-25T04:36:16.143Z,20.13
2017-11-25T04:37:28.904Z,20.07
2017-11-25T04:38:41.234Z,20.13
2017-11-25T04:39:54.022Z,20.1
2017-11-25T04:41:06.769Z,20.1
2017-11-25T04:42:19.516Z,19.98
2017-11-25T04:43:31.756Z,20.1
2017-11-25T04:44:44.464Z,20.07
2017-11-25T04:45:57.136Z,20.04
2017-11-25T04:47:09.366Z,20.01
2017-11-25T04:48:22.099Z,20.12
2017-11-25T04:49:34.807Z,20.12
2017-11-25T04:50:47.651Z,20.13
2017-11-25T04:52:00.390Z,20.1
2017-11-25T04:53:13.132Z,20.16
2017-11-25T04:54:25.828Z,20.08
2017-11-25T04:55:38.080Z,20.04
2017-11-25T04:56:50.754Z,20.13
2017-11-25T04:58:03.492Z,20.13
2017-11-25T04:59:16.147Z,20.08
2017-11-25T05:00:28.455Z,20.15
2017-11-25T05:01:41.165Z,20.07
2017-11-25T05:02:53.804Z,20.05
2017-11-25T05:04:06.491Z,20.1
2017-11-25T05:05:19.217Z,20.15
2017-11-25T05:06:31.924Z,20.17
2017-11-25T05:07:44.579Z,20.12
2017-11-25T05:08:57.306Z,20.08
2017-11-25T05:10:09.997Z,20.08
2017-11-25T05:11:22.705Z,20.12
2017-11-25T05:12:35.067Z,20.12
2017-11-25T05:13:47.779Z,20.16
2017-11-25T05:15:00.431Z,20.15
2017-11-25T05:16:13.090Z,20.08
2017-11-25T05:17:25.694Z,20.13
2017-11-25T05:18:37.931Z,20.1
2017-11-25T05:19:50.601Z,20.01
2017-11-25T05:21:03.330Z,20.1
2017-11-25T05:22:16.017Z,20.07
2017-11-25T05:23:28.783Z,20
2017-11-25T05:24:41.491Z,19.83
2017-11-25T05:25:54.198Z,19.67
2017-11-25T05:27:06.895Z,19.7
2017-11-25T05:28:19.603Z,19.61
2017-11-25T05:29:32.294Z,19.68
2017-11-25T05:30:44.529Z,19.71
2017-11-25T05:31:57.287Z,19.79
2017-11-25T05:33:09.542Z,19.86
2017-11-25T05:34:22.315Z,19.83
2017-11-25T05:35:35.066Z,19.94
2017-11-25T05:36:47.774Z,19.97
2017-11-25T05:38:00.485Z,19.94
2017-11-25T05:39:13.168Z,20.05
2017-11-25T05:40:25.962Z,20.04
2017-11-25T05:41:38.689Z,19.89
2017-11-25T05:42:51.386Z,19.87
2017-11-25T05:44:03.622Z,19.82
2017-11-25T05:45:16.253Z,19.86
2017-11-25T05:46:28.966Z,19.82
2017-11-25T05:47:41.231Z,19.83
2017-11-25T05:48:53.904Z,19.86
2017-11-25T05:50:06.190Z,19.82
2017-11-25T05:51:18.966Z,19.86
2017-11-25T05:52:31.640Z,19.8
2017-11-25T05:53:44.306Z,19.83
2017-11-25T05:54:57.069Z,19.9
2017-11-25T05:56:09.732Z,19.8
2017-11-25T05:57:22.403Z,19.85
2017-11-25T05:58:35.092Z,19.8
2017-11-25T05:59:47.338Z,19.8
2017-11-25T06:00:59.583Z,19.82
2017-11-25T06:02:11.954Z,19.8
2017-11-25T06:03:24.622Z,19.85
2017-11-25T06:04:37.240Z,19.78
2017-11-25T06:05:49.943Z,19.76
2017-11-25T06:07:02.594Z,19.7
2017-11-25T06:08:14.830Z,19.7
2017-11-25T06:09:27.073Z,19.65
2017-11-25T06:10:39.792Z,19.64
2017-11-25T06:11:52.461Z,19.65
2017-11-25T06:13:05.147Z,19.67
2017-11-25T06:14:17.836Z,19.62
2017-11-25T06:15:30.500Z,19.62
2017-11-25T06:16:42.725Z,19.67
2017-11-25T06:17:54.928Z,19.58
2017-11-25T06:19:07.644Z,19.64
2017-11-25T06:20:19.852Z,19.67
2017-11-25T06:21:31.635Z,19.62
2017-11-25T06:22:43.901Z,19.65
2017-11-25T06:23:56.805Z,19.62
2017-11-25T06:25:09.005Z,19.68
2017-11-25T06:26:21.680Z,19.65
2017-11-25T06:27:34.344Z,19.72
2017-11-25T06:28:46.953Z,19.68
2017-11-25T06:29:59.629Z,19.6
2017-11-25T06:31:11.852Z,19.62
2017-11-25T06:32:24.076Z,19.6
2017-11-25T06:33:36.718Z,19.68
2017-11-25T06:34:49.959Z,19.67
2017-11-25T06:36:02.693Z,19.58
2017-11-25T06:37:15.031Z,19.62
2017-11-25T06:38:27.706Z,19.62
2017-11-25T06:39:40.512Z,19.57
2017-11-25T06:40:53.230Z,19.55
2017-11-25T06:42:05.922Z,19.55
2017-11-25T06:43:18.629Z,19.47
2017-11-25T06:44:30.880Z,19.55
2017-11-25T06:45:43.247Z,19.52
2017-11-25T06:46:55.948Z,19.55
2017-11-25T06:48:08.181Z,19.52
2017-11-25T06:49:20.484Z,19.5
2017-11-25T06:50:33.179Z,19.53
2017-11-25T06:51:45.436Z,19.53
2017-11-25T06:52:58.109Z,19.52
2017-11-25T06:54:10.840Z,19.58
2017-11-25T06:55:23.102Z,19.55
2017-11-25T06:56:35.778Z,19.67
2017-11-25T06:57:48.429Z,19.64
2017-11-25T06:59:01.169Z,19.61
2017-11-25T07:00:13.841Z,19.7
2017-11-25T07:01:25.777Z,19.6
2017-11-25T07:02:38.497Z,19.65
2017-11-25T07:03:50.716Z,19.65
2017-11-25T07:05:03.399Z,19.61
2017-11-25T07:06:14.807Z,19.67
2017-11-25T07:07:27.549Z,19.58
2017-11-25T07:08:39.834Z,19.61
2017-11-25T07:09:52.495Z,19.64
2017-11-25T07:11:05.243Z,19.68
2017-11-25T07:12:17.958Z,19.7
2017-11-25T07:13:30.180Z,19.6
2017-11-25T07:14:42.888Z,19.57
2017-11-25T07:15:55.499Z,19.55
2017-11-25T07:17:07.721Z,19.6
2017-11-25T07:18:20.511Z,19.53
2017-11-25T07:19:33.146Z,19.57
2017-11-25T07:20:45.828Z,19.61
2017-11-25T07:21:58.520Z,19.6
2017-11-25T07:23:10.734Z,19.6
2017-11-25T07:24:23.383Z,19.58
2017-11-25T07:25:36.023Z,19.58
2017-11-25T07:26:48.677Z,19.61
2017-11-25T07:28:01.326Z,19.58
2017-11-25T07:29:14.038Z,19.52
2017-11-25T07:30:26.685Z,19.61
2017-11-25T07:31:38.973Z,19.62
2017-11-25T07:32:51.619Z,19.68
2017-11-25T07:34:04.276Z,19.58
2017-11-25T07:35:16.873Z,19.53
2017-11-25T07:36:29.559Z,19.5
2017-11-25T07:37:41.759Z,19.47
2017-11-25T07:38:54.397Z,19.55
2017-11-25T07:40:07.107Z,19.47
2017-11-25T07:41:19.798Z,19.55
2017-11-25T07:42:32.005Z,19.52
2017-11-25T07:43:44.640Z,19.6
2017-11-25T07:44:57.268Z,19.53
2017-11-25T07:46:09.922Z,19.5
2017-11-25T07:47:22.160Z,19.52
2017-11-25T07:48:34.801Z,19.5
2017-11-25T07:49:47.499Z,19.5
2017-11-25T07:51:03.585Z,19.53
2017-11-25T07:52:15.879Z,19.5
2017-11-25T07:53:28.433Z,19.53
2017-11-25T07:54:40.563Z,19.53
2017-11-25T07:55:53.402Z,19.62
2017-11-25T07:57:06.156Z,19.61
2017-11-25T07:58:18.924Z,19.67
2017-11-25T07:59:31.665Z,19.57
2017-11-25T08:00:43.957Z,19.61
2017-11-25T08:01:56.697Z,19.64
2017-11-25T08:03:08.985Z,19.61
2017-11-25T08:04:21.730Z,19.58
2017-11-25T08:05:34.030Z,19.58
2017-11-25T08:06:46.435Z,19.55
2017-11-25T08:07:58.726Z,19.55
2017-11-25T08:09:11.480Z,19.57
2017-11-25T08:10:24.231Z,19.45
2017-11-25T08:11:36.968Z,19.43
2017-11-25T08:12:49.814Z,19.45
2017-11-25T08:14:02.549Z,19.42
2017-11-25T08:15:14.845Z,19.42
2017-11-25T08:16:27.129Z,19.47
2017-11-25T08:17:39.977Z,19.47
2017-11-25T08:18:52.303Z,19.49
2017-11-25T08:20:05.041Z,19.5
2017-11-25T08:21:17.332Z,19.49
2017-11-25T08:22:30.074Z,19.46
2017-11-25T08:23:42.361Z,19.53
2017-11-25T08:24:54.657Z,19.46
2017-11-25T08:26:07.402Z,19.38
2017-11-25T08:27:20.155Z,19.45
2017-11-25T08:28:32.910Z,19.49
2017-11-25T08:29:45.257Z,19.45
2017-11-25T08:30:58.001Z,19.4
2017-11-25T08:32:09.841Z,19.34
2017-11-25T08:33:22.136Z,19.3
2017-11-25T08:34:34.870Z,19.3
2017-11-25T08:35:47.160Z,19.24
2017-11-25T08:36:59.445Z,19.25
2017-11-25T08:38:12.191Z,19.25
2017-11-25T08:39:24.925Z,19.3
2017-11-25T08:40:36.765Z,19.39
2017-11-25T08:41:49.509Z,19.39
2017-11-25T08:43:01.792Z,19.31
2017-11-25T08:44:14.538Z,19.31
2017-11-25T08:45:26.822Z,19.3
2017-11-25T08:46:39.569Z,19.38
2017-11-25T08:47:52.306Z,19.38
2017-11-25T08:49:04.594Z,19.4
2017-11-25T08:50:17.455Z,19.42
2017-11-25T08:51:29.290Z,19.45
2017-11-25T08:52:41.585Z,19.57
2017-11-25T08:53:54.334Z,19.45
2017-11-25T08:55:07.083Z,19.32
2017-11-25T08:56:19.817Z,19.45
2017-11-25T08:57:32.563Z,19.53
2017-11-25T08:58:45.313Z,19.52
2017-11-25T08:59:57.626Z,19.55
2017-11-25T09:01:10.038Z,19.49
2017-11-25T09:02:22.779Z,19.58
2017-11-25T09:03:35.535Z,19.61
2017-11-25T09:04:48.272Z,19.64
2017-11-25T09:06:00.571Z,19.64
2017-11-25T09:07:13.319Z,19.62
2017-11-25T09:08:26.057Z,19.67
2017-11-25T09:09:38.344Z,19.61
2017-11-25T09:10:51.093Z,19.65
2017-11-25T09:12:03.847Z,19.64
2017-11-25T09:13:16.596Z,19.57
2017-11-25T09:14:29.339Z,19.64
2017-11-25T09:15:41.638Z,19.61
2017-11-25T09:16:54.378Z,19.68
2017-11-25T09:18:06.680Z,19.67
2017-11-25T09:19:19.437Z,19.8
2017-11-25T09:20:31.730Z,19.7
2017-11-25T09:21:44.494Z,19.86
2017-11-25T09:22:57.246Z,19.87
2017-11-25T09:24:10.018Z,19.85
2017-11-25T09:25:22.322Z,19.94
2017-11-25T09:26:35.089Z,19.94
2017-11-25T09:27:47.858Z,20.01
2017-11-25T09:29:00.613Z,20.05
2017-11-25T09:30:13.424Z,20.02
2017-11-25T09:31:26.187Z,20.07
2017-11-25T09:32:38.488Z,20.02
2017-11-25T09:33:50.818Z,20.12
2017-11-25T09:35:03.574Z,20.13
2017-11-25T09:36:16.351Z,20.15
2017-11-25T09:37:28.655Z,20.31
2017-11-25T09:38:41.422Z,20.35
2017-11-25T09:39:54.175Z,20.41
2017-11-25T09:41:06.931Z,20.42
2017-11-25T09:42:19.267Z,20.54
2017-11-25T09:43:32.022Z,20.54
2017-11-25T09:44:44.791Z,20.56
2017-11-25T09:45:57.562Z,20.63
2017-11-25T09:47:10.342Z,20.73
2017-11-25T09:48:23.093Z,20.73
2017-11-25T09:49:35.856Z,20.78
2017-11-25T09:50:48.159Z,20.88
2017-11-25T09:52:00.913Z,20.93
2017-11-25T09:53:13.720Z,21.05
2017-11-25T09:54:26.483Z,20.91
2017-11-25T09:55:39.352Z,21.11
2017-11-25T09:56:52.105Z,21.18
2017-11-25T09:58:04.422Z,21.06
2017-11-25T09:59:17.172Z,21.27
2017-11-25T10:00:29.476Z,21.18
2017-11-25T10:01:42.233Z,21.18
2017-11-25T10:02:54.529Z,21.19
2017-11-25T10:04:07.281Z,21.28
2017-11-25T10:05:19.573Z,21.3
2017-11-25T10:06:32.340Z,21.37
2017-11-25T10:07:45.089Z,21.42
2017-11-25T10:08:57.388Z,21.46
2017-11-25T10:10:10.131Z,21.45
2017-11-25T10:11:22.880Z,21.51
2017-11-25T10:12:35.173Z,21.51
2017-11-25T10:13:47.012Z,21.55
2017-11-25T10:14:59.321Z,21.61
2017-11-25T10:16:12.078Z,21.59
2017-11-25T10:17:24.833Z,21.59
2017-11-25T10:18:37.604Z,21.71
2017-11-25T10:19:49.913Z,21.63
2017-11-25T10:21:02.667Z,21.68
2017-11-25T10:22:15.425Z,21.73
2017-11-25T10:23:28.181Z,21.77
2017-11-25T10:24:40.937Z,21.73
2017-11-25T10:25:53.703Z,21.71
2017-11-25T10:27:06.486Z,21.79
2017-11-25T10:28:19.250Z,21.89
2017-11-25T10:29:31.545Z,21.91
2017-11-25T10:30:44.298Z,21.99
2017-11-25T10:31:56.600Z,22.11
2017-11-25T10:33:08.901Z,22.05
2017-11-25T10:34:21.654Z,22.02
2017-11-25T10:35:34.416Z,22.14
2017-11-25T10:36:47.171Z,22.11
2017-11-25T10:37:59.468Z,22.26
2017-11-25T10:39:11.321Z,22.14
2017-11-25T10:40:24.077Z,22.12
2017-11-25T10:41:36.820Z,22.08
2017-11-25T10:42:49.570Z,22.17
2017-11-25T10:44:02.324Z,22.26
2017-11-25T10:45:15.101Z,22.29
2017-11-25T10:46:27.866Z,22.26
2017-11-25T10:47:40.607Z,22.26
2017-11-25T10:48:53.353Z,22.39
2017-11-25T10:50:06.125Z,22.46
2017-11-25T10:51:18.431Z,22.48
2017-11-25T10:52:30.748Z,22.57
2017-11-25T10:53:43.051Z,22.61
2017-11-25T10:54:55.806Z,22.66
2017-11-25T10:56:08.109Z,22.64
2017-11-25T10:57:20.899Z,22.85
2017-11-25T10:58:33.658Z,22.88
2017-11-25T10:59:45.503Z,22.88
2017-11-25T11:00:58.281Z,22.86
2017-11-25T11:02:10.585Z,22.99
2017-11-25T11:03:22.901Z,22.99
2017-11-25T11:04:34.749Z,23.07
2017-11-25T11:05:47.515Z,23.12
2017-11-25T11:07:00.366Z,23.19
2017-11-25T11:08:13.130Z,23.34
2017-11-25T11:09:25.915Z,23.25
2017-11-25T11:10:38.662Z,23.26
2017-11-25T11:11:51.413Z,23.44
2017-11-25T11:13:04.192Z,23.5
2017-11-25T11:14:16.499Z,23.63
2017-11-25T11:15:29.242Z,23.62
2017-11-25T11:16:41.990Z,23.74
2017-11-25T11:17:54.785Z,23.71
2017-11-25T11:19:07.537Z,23.72
2017-11-25T11:20:20.294Z,23.89
2017-11-25T11:21:33.041Z,23.9
2017-11-25T11:22:45.340Z,24.02
2017-11-25T11:23:58.089Z,24.02
2017-11-25T11:25:10.871Z,24.19
2017-11-25T11:26:23.621Z,24.23
2017-11-25T11:27:35.923Z,24.3
2017-11-25T11:28:48.699Z,24.34
2017-11-25T11:30:01.005Z,24.53
2017-11-25T11:31:13.318Z,24.49
2017-11-25T11:32:25.622Z,24.64
2017-11-25T11:33:37.473Z,24.84
2017-11-25T11:34:50.257Z,24.89
2017-11-25T11:36:03.008Z,24.89
2017-11-25T11:37:15.762Z,24.89
2017-11-25T11:38:28.536Z,24.94
2017-11-25T11:39:41.294Z,25.14
2017-11-25T11:40:54.048Z,25.23
2017-11-25T11:42:06.358Z,25.44
2017-11-25T11:43:18.660Z,25.54
2017-11-25T11:44:30.507Z,25.75
2017-11-25T11:45:43.264Z,25.81
2017-11-25T11:46:56.063Z,25.79
2017-11-25T11:48:08.839Z,25.82
2017-11-25T11:49:21.600Z,26.08
2017-11-25T11:50:34.361Z,26.27
2017-11-25T11:51:47.114Z,26.27
2017-11-25T11:52:59.869Z,26.41
2017-11-25T11:54:12.618Z,26.61
2017-11-25T11:55:24.924Z,26.72
2017-11-25T11:56:37.222Z,26.75
2017-11-25T11:57:49.986Z,26.59
2017-11-25T11:59:02.751Z,26.64
2017-11-25T12:00:15.512Z,26.86
2017-11-25T12:01:27.817Z,27.01
2017-11-25T12:02:39.675Z,27.15
2017-11-25T12:03:51.982Z,27.23
2017-11-25T12:05:04.739Z,27.15
2017-11-25T12:06:17.502Z,27.3
2017-11-25T12:07:30.255Z,27.43
2017-11-25T12:08:43.016Z,27.58
2017-11-25T12:09:55.782Z,27.55
2017-11-25T12:11:08.562Z,27.69
2017-11-25T12:12:21.314Z,27.84
2017-11-25T12:13:33.617Z,28.03
2017-11-25T12:14:46.379Z,28.17
2017-11-25T12:15:59.125Z,28.39
2017-11-25T12:17:11.881Z,28.61
2017-11-25T12:18:24.637Z,28.77
2017-11-25T12:19:37.393Z,28.94
2017-11-25T12:20:50.156Z,29.07
2017-11-25T12:22:02.913Z,29.08
2017-11-25T12:23:15.700Z,29.2
2017-11-25T12:24:28.455Z,29
2017-11-25T12:25:41.226Z,29.29
2017-11-25T12:26:53.984Z,29.41
2017-11-25T12:28:05.864Z,29.52
2017-11-25T12:29:18.191Z,29.55
2017-11-25T12:30:30.955Z,29.66
2017-11-25T12:31:43.705Z,29.79
2017-11-25T12:32:56.016Z,29.99
2017-11-25T12:34:08.336Z,29.97
2017-11-25T12:35:21.103Z,30.16
2017-11-25T12:36:33.401Z,30.23
2017-11-25T12:37:46.211Z,30.34
2017-11-25T12:38:58.969Z,30.67
2017-11-25T12:40:11.271Z,30.85
2017-11-25T12:41:24.020Z,30.94
2017-11-25T12:42:36.775Z,31.07
2017-11-25T12:43:49.525Z,31.38
2017-11-25T12:45:02.281Z,31.82
2017-11-25T12:46:15.053Z,31.53
2017-11-25T12:47:27.800Z,31.56
2017-11-25T12:48:40.582Z,31.4
2017-11-25T12:49:53.346Z,31.03
2017-11-25T12:51:06.131Z,31.12
2017-11-25T12:52:18.902Z,31.16
2017-11-25T12:53:31.672Z,31.12
2017-11-25T12:54:44.439Z,31.28
2017-11-25T12:55:57.207Z,31.54
2017-11-25T12:57:09.995Z,31.6
2017-11-25T12:58:22.311Z,31.65
2017-11-25T12:59:34.173Z,31.82
2017-11-25T13:00:46.930Z,31.87
2017-11-25T13:01:59.702Z,31.65
2017-11-25T13:03:12.451Z,31.6
2017-11-25T13:04:25.216Z,31.53
2017-11-25T13:05:37.973Z,31.71
2017-11-25T13:06:50.747Z,32.13
2017-11-25T13:08:03.052Z,32.12
2017-11-25T13:09:15.804Z,32.21
2017-11-25T13:10:28.562Z,32.53
2017-11-25T13:11:40.879Z,32.51
2017-11-25T13:12:53.225Z,32.44
2017-11-25T13:14:06.012Z,32.24
2017-11-25T13:15:18.784Z,32.05
2017-11-25T13:16:31.557Z,32.09
2017-11-25T13:17:43.881Z,32.09
2017-11-25T13:18:56.666Z,32.17
2017-11-25T13:20:09.466Z,31.99
2017-11-25T13:21:22.241Z,31.53
2017-11-25T13:22:35.009Z,31.13
2017-11-25T13:23:47.780Z,31.15
2017-11-25T13:25:00.538Z,31.34
2017-11-25T13:26:13.296Z,31.62
2017-11-25T13:27:26.076Z,31.52
2017-11-25T13:28:38.394Z,31.62
2017-11-25T13:29:51.179Z,31.67
2017-11-25T13:31:03.953Z,32.02
2017-11-25T13:32:16.727Z,32.16
2017-11-25T13:33:29.502Z,31.82
2017-11-25T13:34:41.826Z,31.16
2017-11-25T13:35:54.598Z,31.03
2017-11-25T13:37:06.914Z,31.23
2017-11-25T13:38:19.674Z,31.32
2017-11-25T13:39:31.997Z,31.6
2017-11-25T13:40:44.789Z,31.94
2017-11-25T13:41:57.111Z,32.1
2017-11-25T13:43:09.877Z,32.25
2017-11-25T13:44:22.680Z,32.12
2017-11-25T13:45:35.453Z,31.87
2017-11-25T13:46:48.241Z,32.16
2017-11-25T13:48:01.005Z,31.98
2017-11-25T13:49:13.318Z,31.99
2017-11-25T13:50:26.116Z,31.87
2017-11-25T13:51:38.895Z,31.41
2017-11-25T13:52:51.663Z,30.96
2017-11-25T13:54:03.976Z,31.12
2017-11-25T13:55:16.803Z,31.3
2017-11-25T13:56:29.649Z,31.1
2017-11-25T13:57:42.479Z,31.28
2017-11-25T13:58:55.308Z,31.23
2017-11-25T14:00:08.228Z,31.12
2017-11-25T14:01:21.042Z,31.19
2017-11-25T14:02:32.956Z,31.34
2017-11-25T14:03:45.776Z,31.19
2017-11-25T14:04:58.140Z,31.56
2017-11-25T14:06:10.957Z,31.95
2017-11-25T14:07:23.784Z,32.14
2017-11-25T14:08:36.625Z,32.41
2017-11-25T14:09:48.990Z,32.72
2017-11-25T14:11:02.001Z,32.85
2017-11-25T14:12:14.838Z,33.02
2017-11-25T14:13:27.666Z,33.14
2017-11-25T14:14:40.038Z,33.2
2017-11-25T14:15:52.875Z,33.09
2017-11-25T14:17:04.386Z,33.07
2017-11-25T14:18:17.169Z,33.18
2017-11-25T14:19:29.988Z,33.21
2017-11-25T14:20:42.316Z,33.44
2017-11-25T14:21:54.190Z,33.43
2017-11-25T14:23:06.994Z,33.66
2017-11-25T14:24:19.318Z,33.77
2017-11-25T14:25:32.065Z,33.94
2017-11-25T14:26:44.859Z,34.27
2017-11-25T14:27:57.607Z,34.38
2017-11-25T14:29:10.315Z,34.49
2017-11-25T14:30:23.065Z,34.61
2017-11-25T14:31:35.838Z,34.69
2017-11-25T14:32:48.574Z,34.06
2017-11-25T14:34:01.322Z,33.92
2017-11-25T14:35:13.615Z,33.52
2017-11-25T14:36:26.359Z,33.45
2017-11-25T14:37:39.141Z,33.07
2017-11-25T14:38:51.881Z,33.18
2017-11-25T14:40:04.682Z,33.4
2017-11-25T14:41:17.438Z,33.53
2017-11-25T14:42:30.131Z,33.45
2017-11-25T14:43:42.897Z,33.56
2017-11-25T14:44:55.186Z,33.7
2017-11-25T14:46:07.487Z,33.63
2017-11-25T14:47:20.240Z,33.56
2017-11-25T14:48:32.981Z,33.24
2017-11-25T14:49:45.799Z,33.12
2017-11-25T14:50:58.548Z,33.21
2017-11-25T14:52:10.444Z,33.17
2017-11-25T14:53:23.201Z,33.26
2017-11-25T14:54:35.701Z,33.15
2017-11-25T14:55:48.456Z,33.14
2017-11-25T14:57:01.248Z,33.14
2017-11-25T14:58:14.036Z,33.17
2017-11-25T14:59:26.834Z,33.11
2017-11-25T15:00:39.591Z,33.06
2017-11-25T15:01:52.365Z,32.84
2017-11-25T15:03:05.128Z,32.72
2017-11-25T15:04:17.424Z,32.8
2017-11-25T15:05:30.166Z,32.28
2017-11-25T15:06:42.911Z,32.09
2017-11-25T15:07:55.691Z,32.14
2017-11-25T15:09:08.389Z,32.17
2017-11-25T15:10:21.130Z,32.13
2017-11-25T15:11:33.884Z,31.88
2017-11-25T15:12:46.621Z,31.99
2017-11-25T15:13:59.364Z,32.09
2017-11-25T15:15:11.639Z,32.24
2017-11-25T15:16:24.397Z,32.32
2017-11-25T15:17:36.710Z,32.35
2017-11-25T15:18:49.473Z,32.39
2017-11-25T15:20:01.283Z,32.35
2017-11-25T15:21:13.982Z,32.07
2017-11-25T15:22:26.700Z,32.1
2017-11-25T15:23:38.966Z,32.12
2017-11-25T15:24:51.730Z,32.24
2017-11-25T15:26:04.098Z,32.36
2017-11-25T15:27:16.367Z,32.29
2017-11-25T15:28:29.148Z,32.32
2017-11-25T15:29:41.890Z,32.13
2017-11-25T15:30:54.565Z,31.91
2017-11-25T15:32:07.239Z,31.82
2017-11-25T15:33:19.891Z,31.79
2017-11-25T15:34:32.135Z,31.69
2017-11-25T15:35:44.810Z,31.65
2017-11-25T15:36:57.498Z,31.35
2017-11-25T15:38:09.303Z,31
2017-11-25T15:39:21.530Z,30.91